logo
App data

Alien Shooter 2 Conscription

The Great War has begun! The world population capable of functioning is mobilized to serve in the army and the outcome depends on you!
Store | Hub | SteamDB | Site
Developer: Sigma Team Inc. Publisher: Sigma Team Inc.
Genre: Action, Indie, RPG
Languages: English, Russian
Tags: Action (38), Indie (34), RPG (30), Shooter (17), Singleplayer (14), Top-Down Shooter (10), Gore (7), Aliens (5)
Category: Single-player, Steam Trading Cards
Release date: May 18, 2012
Price: $9.99
Old userscore: 81% Owners: 100,000 .. 200,000
Followers: 905
Peak concurrent players yesterday: 3
Playtime total: 02:45 (average) 02:45 (median)

Steam Spy is still in beta, so expect major bugs.

Owners data:

Access restricted.

This feature is only available to users with special access rights. Sorry.

If you want to proceed, you need to register or log in first and then back Steam Spy on Patreon. Look for Indie or Pro pledge.

Don't forget to use the same email as on Steam Spy!

Audience in 2 weeks:

Access restricted.

This feature is only available to users with special access rights. Sorry.

If you want to proceed, you need to register or log in first and then back Steam Spy on Patreon. Look for Indie or Pro pledge.

Don't forget to use the same email as on Steam Spy!

Peak daily concurrent players:

CCU data courtesy of SteamDB. Used with permission.

Hourly concurrent players:

Daily Twitch stats:

Hourly Twitch stats:

Followers over time

Access restricted.

This feature is only available to users with special access rights. Sorry.

If you want to proceed, you need to register or log in first and then back Steam Spy on Patreon. Look for Indie or Pro pledge.

Don't forget to use the same email as on Steam Spy!

Views for top 50 videos on YouTube for this game:

Games similar to this one:

# Game Release date
Price
Score rank
(Userscore / Metascore)
Owners
Players
Playtime (Median)
1 Heavy Fire: Afghanistan Aug 15, 2014 $2.99N/A (N/A)50,000 .. 100,0000%00:00 (00:00)
2 Wickland Feb 6, 2015 $0.99N/A (N/A)50,000 .. 100,0000%00:00 (00:00)
3 Overlord: Fellowship of Evil Oct 19, 2015 $18.99N/A (N/A)50,000 .. 100,0000%00:00 (00:00)
4 UNLOVED Sep 29, 2016 $9.99N/A (N/A)50,000 .. 100,0000%00:00 (00:00)
5 The Way May 20, 2016 $14.99N/A (N/A/67%)100,000 .. 200,0000%00:00 (00:00)
6 Guns, Gore & Cannoli Apr 30, 2015 $9.99N/A (N/A/80%)100,000 .. 200,0000%00:00 (00:00)
7 The Stalin Subway: Red Veil Oct 24, 2014 $2.99N/A (N/A)50,000 .. 100,0000%00:00 (00:00)
8 FEIST Jul 23, 2015 $9.99N/A (N/A/65%)20,000 .. 50,0000%00:00 (00:00)
9 Jet Gunner Aug 4, 2014 $0.99N/A (N/A)100,000 .. 200,0000%00:00 (00:00)
10 Robotex Nov 19, 2014 $4.99N/A (N/A)200,000 .. 500,0000%00:00 (00:00)
11 Attractio Jan 18, 2016 $19.99N/A (N/A)20,000 .. 50,0000%00:00 (00:00)
12 Velocity 2X Aug 19, 2015 $19.99N/A (N/A)50,000 .. 100,0000%00:00 (00:00)
13 Odallus: The Dark Call Jul 15, 2015 $9.99N/A (N/A/80%)100,000 .. 200,0000%00:00 (00:00)
14 Armed with Wings: Rearmed Jun 1, 2017 $9.99N/A (N/A)20,000 .. 50,0000%00:00 (00:00)
15 Deadlings: Rotten Edition Nov 11, 2014 $3.99N/A (N/A)50,000 .. 100,0000%00:00 (00:00)
16 Momodora III Jul 1, 2014 $1.99N/A (N/A)50,000 .. 100,0000%00:00 (00:00)
17 Toren May 11, 2015 $9.99N/A (N/A/57%)50,000 .. 100,0000%00:00 (00:00)
18 Little Big Adventure - Enhanced Edition Oct 20, 2015 $5.99N/A (N/A)20,000 .. 50,0000%00:00 (00:00)
19 Mighty Switch Force! Hyper Drive Edition Jun 25, 2015 $9.99N/A (N/A/85%)0 .. 20,0000%00:00 (00:00)
20 Little Big Adventure 2 Oct 20, 2015 $3.99N/A (N/A)20,000 .. 50,0000%00:00 (00:00)
21 Demons with Shotguns Apr 25, 2016 $9.99N/A (N/A)0 .. 20,0000%00:00 (00:00)
22 12 is Better Than 6 Nov 20, 2015 $9.99N/A (N/A/74%)500,000 .. 1,000,0000%00:00 (00:00)
23 Weapon of Choice Sep 23, 2015 $4.99N/A (N/A)0 .. 20,0000%00:00 (00:00)
24 Dinocide Jan 21, 2016 $9.99N/A (N/A/51%)50,000 .. 100,0000%00:00 (00:00)
25 Anima Gate of Memories Jun 2, 2016 $19.99N/A (N/A)20,000 .. 50,0000%00:00 (00:00)
26 Prison Run and Gun Mar 16, 2016 $4.99N/A (N/A)20,000 .. 50,0000%00:00 (00:00)
27 Vendetta - Curse of Raven's Cry Nov 20, 2015 $29.99N/A (N/A)500,000 .. 1,000,0000%00:00 (00:00)
28 The Tiny Tale 2 Jan 30, 2015 $6.99N/A (N/A)0 .. 20,0000%00:00 (00:00)
29 TRON RUN/r Feb 16, 2016 $19.99N/A (N/A)0 .. 20,0000%00:00 (00:00)
30 David. Feb 16, 2015 $1.99N/A (N/A)50,000 .. 100,0000%00:00 (00:00)
31 Toy Odyssey: The Lost and Found Sep 20, 2016 $14.99N/A (N/A/66%)20,000 .. 50,0000%00:00 (00:00)
32 Supercharged Robot VULKAISER Jun 4, 2015 $4.99N/A (N/A)20,000 .. 50,0000%00:00 (00:00)
33 Bleed 2 Feb 8, 2017 $9.99N/A (N/A/83%)50,000 .. 100,0000%00:00 (00:00)
34 Planet of the Eyes Aug 24, 2015 $9.99N/A (N/A/66%)50,000 .. 100,0000%00:00 (00:00)
35 Mr. Shifty Apr 13, 2017 $14.99N/A (N/A)100,000 .. 200,0000%00:00 (00:00)
36 Unbox: Newbie's Adventure Sep 5, 2016 $19.99N/A (N/A/68%)50,000 .. 100,0000%00:00 (00:00)
37 Wonder Boy: The Dragon's Trap Jun 8, 2017 $19.99N/A (N/A)50,000 .. 100,0000%00:00 (00:00)
38 Battle Bruise Apr 22, 2017 $0.49N/A (N/A)20,000 .. 50,0000%00:00 (00:00)
39 Livelock Aug 30, 2016 $9.99N/A (N/A/73%)50,000 .. 100,0000%00:00 (00:00)
40 Collapse Apr 11, 2014 $19.99N/A (N/A)50,000 .. 100,0000%00:00 (00:00)
41 The First Templar - Steam Special Edition May 12, 2011 $9.99N/A (N/A/57%)100,000 .. 200,0000%00:00 (00:00)
42 Meltdown Jun 5, 2014 $6.99N/A (N/A)100,000 .. 200,0000%00:00 (00:00)
43 Hot Tin Roof: The Cat That Wore A Fedora Feb 20, 2015 $14.99N/A (N/A/66%)100,000 .. 200,0000%00:00 (00:00)
44 Hive Jump Jan 18, 2017 $19.99N/A (N/A)20,000 .. 50,0000%00:00 (00:00)
45 A.R.E.S.: Extinction Agenda Jan 19, 2011 $4.99N/A (N/A/68%)100,000 .. 200,0000%00:00 (00:00)
46 The Dishwasher: Vampire Smile May 12, 2017 $9.99N/A (N/A)50,000 .. 100,0000%00:00 (00:00)
47 Blood Knights Nov 13, 2013 $9.99N/A (N/A)50,000 .. 100,0000%00:00 (00:00)
48 MIND: Path to Thalamus Enhanced Edition Aug 5, 2014 $5.99N/A (N/A/75%)100,000 .. 200,0000%00:00 (00:00)
49 Warp Mar 21, 2012 $9.99N/A (N/A)20,000 .. 50,0000%00:00 (00:00)
50 Ku: Shroud of the Morrigan Mar 17, 2014 $4.99N/A (N/A)20,000 .. 50,0000%00:00 (00:00)
51 Wooden Sen'SeY Dec 5, 2013 $9.99N/A (N/A)20,000 .. 50,0000%00:00 (00:00)
52 Viktor Jun 13, 2014 $7.99N/A (N/A)20,000 .. 50,0000%00:00 (00:00)
53 Noitu Love 2: Devolution Apr 23, 2012 $4.99N/A (N/A/80%)50,000 .. 100,0000%00:00 (00:00)
54 Shadow Blade: Reload Aug 10, 2015 $9.99N/A (N/A/70%)20,000 .. 50,0000%00:00 (00:00)
55 Last Knight: Rogue Rider Edition Oct 3, 2014 $7.99N/A (N/A)20,000 .. 50,0000%00:00 (00:00)
56 Beyond Space Remastered Edition Jun 18, 2014 $4.99N/A (N/A)20,000 .. 50,0000%00:00 (00:00)
57 Droid Assault Jan 9, 2013 $9.99N/A (N/A)50,000 .. 100,0000%00:00 (00:00)
58 RIVE: Wreck, Hack, Die, Retry! Sep 13, 2016 $14.99N/A (N/A)200,000 .. 500,0000%00:00 (00:00)
59 BloodRayne 2 Aug 2, 2005 $9.99N/A (N/A/67%)50,000 .. 100,0000%00:00 (00:00)
60 Psichodelya Aug 8, 2014 $1.99N/A (N/A)50,000 .. 100,0000%00:00 (00:00)
61 Leisure Suit Larry in the Land of the Lounge Lizards: Reloaded Jun 27, 2013 N/AN/A (N/A)50,000 .. 100,0000%00:00 (00:00)
62 GIGANTIC ARMY Mar 6, 2014 $5.99N/A (N/A)50,000 .. 100,0000%00:00 (00:00)
63 Dark Sector Mar 24, 2009 $9.99N/A (N/A/66%)50,000 .. 100,0000%00:00 (00:00)
64 Pixel Boy and the Ever Expanding Dungeon May 30, 2014 $0.99N/A (N/A)20,000 .. 50,0000%00:00 (00:00)
65 Rain Blood Chronicles: Mirage Nov 11, 2013 $4.99N/A (N/A/68%)0 .. 20,0000%00:00 (00:00)
66 Woolfe - The Red Hood Diaries Mar 17, 2015 $9.99N/A (N/A/55%)100,000 .. 200,0000%00:00 (00:00)
67 Painkiller: Black Edition Jan 24, 2007 $9.99N/A (N/A)100,000 .. 200,0000%00:00 (00:00)
68 Guns n Zombies Oct 30, 2014 $1.99N/A (N/A)100,000 .. 200,0000%00:00 (00:00)
69 VelocityUltra Dec 12, 2013 $9.99N/A (N/A)20,000 .. 50,0000%00:00 (00:00)
70 Strike Suit Zero: Director's Cut Apr 8, 2014 $19.99N/A (N/A)50,000 .. 100,0000%00:00 (00:00)
71 Devil May Cry 4 Dec 22, 2009 $19.99N/A (N/A/78%)200,000 .. 500,0000%00:00 (00:00)
72 MURI Dec 6, 2013 $4.99N/A (N/A)20,000 .. 50,0000%00:00 (00:00)

Tags over time:

Access restricted.

This feature is only available to users with special access rights. Sorry.

If you want to proceed, you need to register or log in first and then back Steam Spy on Patreon. Look for Indie or Pro pledge.

Don't forget to use the same email as on Steam Spy!

Owners of this game also own:

Access restricted.

This feature is only available to users with special access rights. Sorry.

If you want to proceed, you need to register or log in first and then back Steam Spy on Patreon. Look for Indie or Pro pledge.

Don't forget to use the same email as on Steam Spy!

Playtime distribution:

Access restricted.

This feature is only available to users with special access rights. Sorry.

If you want to proceed, you need to register or log in first and then back Steam Spy on Patreon. Look for Indie or Pro pledge.

Don't forget to use the same email as on Steam Spy!

Playtime (2 weeks):

Access restricted.

This feature is only available to users with special access rights. Sorry.

If you want to proceed, you need to register or log in first and then back Steam Spy on Patreon. Look for Indie or Pro pledge.

Don't forget to use the same email as on Steam Spy!

User reviews:

Login required.

Please register or log in to see this information.